Vronskiy — C4AY2 — position and weather

sailwx.info

Track history (hours):
 
Tides and Currents Weather Stations Pressure Air Temp Water Temp Dewpoint Dewpoint Depression Visibility Wind Speed Wind Dir Waves Ship Positions

Vronskiy

Last reported at 2015-Sep-04 03:33 UTC. Time now 2015-Sep-04 10:28 UTC.
Position N 36°44' W 002°27'.

Length 131 m; draft 5.2 m.

Type: Passenger vessel. MMSI: 210030000.

Date/timePositionNaut miles runAvg speedWind from/ knotsBaromVisibWave heightAir tempDewpointWater temp
2015-Sep-04 03:33N 36°44' W 002°27'6 5.9
2015-Sep-04 02:29N 36°50' W 002°28'0 0.0
2015-Sep-04 01:32N 36°50' W 002°28'0 0.0
2015-Sep-04 00:33N 36°50' W 002°28'1010.1
2015-Sep-03 23:33N 36°40' W 002°26'4 0.2
2015-Sep-03 04:29N 36°36' W 002°25'1415.0
2015-Sep-03 03:34N 36°50' W 002°28'0 0.2
2015-Sep-03 02:33N 36°50' W 002°28'0 0.0
2015-Sep-03 01:33N 36°50' W 002°28'0 0.0
2015-Sep-03 00:33N 36°50' W 002°28'9 8.9
2015-Sep-02 23:34N 36°41' W 002°26'10314.1
2015-Sep-02 16:15N 35°46' W 000°38'13 2.1
2015-Sep-02 10:19N 35°55' W 000°49'9014.8
2015-Sep-02 04:14N 36°41' W 002°26'912.1
2015-Sep-02 03:30N 36°50' W 002°28'0 0.0
2015-Sep-02 02:09N 36°50' W 002°28'0 0.0
2015-Sep-02 01:33N 36°50' W 002°28'0 0.0
2015-Sep-02 00:33N 36°50' W 002°28'1010.1
2015-Sep-01 23:33N 36°40' W 002°27'8 0.4
2015-Sep-01 02:33N 36°48' W 002°27'2 2.1
2015-Sep-01 01:31N 36°50' W 002°28'0 0.0
2015-Sep-01 00:34N 36°50' W 002°28'0 0.0
2015-Aug-31 23:33N 36°50' W 002°28'10 9.6
2015-Aug-31 22:33N 36°40' W 002°26'0 0.0
2015-Aug-31 05:19N 36°40' W 002°26'1010.4
2015-Aug-31 04:24N 36°50' W 002°28'0 0.0
2015-Aug-31 03:33N 36°50' W 002°28'0 0.0
2015-Aug-31 02:32N 36°50' W 002°28'0 0.0
2015-Aug-31 01:29N 36°50' W 002°28'2 2.6
2015-Aug-31 00:33N 36°48' W 002°27'5813.8
2015-Aug-30 20:21N 36°06' W 001°36'42 1.0
2015-Aug-29 03:33N 36°26' W 002°22'57 5.7
2015-Aug-28 17:32N 36°02' W 001°17'1616.3
2015-Aug-28 16:33N 35°58' W 000°58'1615.9
2015-Aug-28 15:32N 35°53' W 000°39'  
Track history (hours):
 
Tides and Currents Weather Stations Pressure Air Temp Water Temp Dewpoint Dewpoint Depression Visibility Wind Speed Wind Dir Waves Ship Positions

Vronskiy

Last reported at 2015-Sep-04 03:33 UTC. Time now 2015-Sep-04 10:28 UTC.
Position N 36°44' W 002°27'.

Length 131 m; draft 5.2 m.

Type: Passenger vessel. MMSI: 210030000.

Date/timePositionNaut miles runAvg speedWind from/ knotsBaromVisibWave heightAir tempDewpointWater temp
2015-Sep-04 03:33N 36°44' W 002°27'6 5.9
2015-Sep-04 02:29N 36°50' W 002°28'0 0.0
2015-Sep-04 01:32N 36°50' W 002°28'0 0.0
2015-Sep-04 00:33N 36°50' W 002°28'1010.1
2015-Sep-03 23:33N 36°40' W 002°26'4 0.2
2015-Sep-03 04:29N 36°36' W 002°25'1415.0
2015-Sep-03 03:34N 36°50' W 002°28'0 0.2
2015-Sep-03 02:33N 36°50' W 002°28'0 0.0
2015-Sep-03 01:33N 36°50' W 002°28'0 0.0
2015-Sep-03 00:33N 36°50' W 002°28'9 8.9
2015-Sep-02 23:34N 36°41' W 002°26'10314.1
2015-Sep-02 16:15N 35°46' W 000°38'13 2.1
2015-Sep-02 10:19N 35°55' W 000°49'9014.8
2015-Sep-02 04:14N 36°41' W 002°26'912.1
2015-Sep-02 03:30N 36°50' W 002°28'0 0.0
2015-Sep-02 02:09N 36°50' W 002°28'0 0.0
2015-Sep-02 01:33N 36°50' W 002°28'0 0.0
2015-Sep-02 00:33N 36°50' W 002°28'1010.1
2015-Sep-01 23:33N 36°40' W 002°27'8 0.4
2015-Sep-01 02:33N 36°48' W 002°27'2 2.1
2015-Sep-01 01:31N 36°50' W 002°28'0 0.0
2015-Sep-01 00:34N 36°50' W 002°28'0 0.0
2015-Aug-31 23:33N 36°50' W 002°28'10 9.6
2015-Aug-31 22:33N 36°40' W 002°26'0 0.0
2015-Aug-31 05:19N 36°40' W 002°26'1010.4
2015-Aug-31 04:24N 36°50' W 002°28'0 0.0
2015-Aug-31 03:33N 36°50' W 002°28'0 0.0
2015-Aug-31 02:32N 36°50' W 002°28'0 0.0
2015-Aug-31 01:29N 36°50' W 002°28'2 2.6
2015-Aug-31 00:33N 36°48' W 002°27'5813.8
2015-Aug-30 20:21N 36°06' W 001°36'42 1.0
2015-Aug-29 03:33N 36°26' W 002°22'57 5.7
2015-Aug-28 17:32N 36°02' W 001°17'1616.3
2015-Aug-28 16:33N 35°58' W 000°58'1615.9
2015-Aug-28 15:32N 35°53' W 000°39'  

Dump ship's entire track history